Time;durP1;ratioP1;P1;durP2;ratioP2;P2;SDS_P1;SDS_P2;PMS_P1;PMS_P2;Temp;Humidity;BMP_temperature;BMP_pressure;BME280_temperature;BME280_humidity;BME280_pressure;Samples;Min_cycle;Max_cycle;Signal;HPM_P1;HPM_P2
2023/07/12 00:00:20;;;;;;;9.10;4.15;;;;;;;23.40;69.21;99913.84;6145277;23;20032;-85
2023/07/12 00:03:27;;;;;;;5.53;4.03;;;;;;;23.29;69.81;99907.06;6155735;23;20047;-83
2023/07/12 00:07:36;;;;;;;7.85;3.80;;;;;;;23.43;69.42;99900.97;6154461;23;20028;-84
2023/07/12 00:11:08;;;;;;;5.38;3.50;;;;;;;23.42;69.72;99904.66;6155749;23;20406;-84
2023/07/12 00:14:35;;;;;;;;;;;;;;;;;;;;;
2023/07/12 00:19:22;;;;;;;7.47;3.80;;;;;;;23.26;71.14;99896.78;6029873;23;20034;-85
2023/07/12 00:23:11;;;;;;;;;;;;;;;;;;;;;
2023/07/12 00:27:16;;;;;;;7.47;4.20;;;;;;;23.21;71.98;99894.63;6155342;23;20029;-86
2023/07/12 00:36:40;;;;;;;;;;;;;;;;;;;;;
2023/07/12 00:40:12;;;;;;;8.50;4.40;;;;;;;23.04;73.67;99870.91;6155123;23;20380;-84
2023/07/12 00:43:43;;;;;;;6.53;3.92;;;;;;;23.11;73.79;99872.72;6155128;23;20028;-84
2023/07/12 00:47:15;;;;;;;7.18;4.18;;;;;;;23.08;74.04;99864.22;6127901;23;20183;-82
2023/07/12 00:50:20;;;;;;;6.03;3.65;;;;;;;22.93;74.70;99870.31;6152240;23;20036;-82
2023/07/12 00:53:34;;;;;;;9.02;4.93;;;;;;;22.66;76.06;99871.59;6155105;23;20029;-84
2023/07/12 00:56:38;;;;;;;6.15;4.05;;;;;;;22.55;76.62;99882.63;6154051;23;20106;-82
2023/07/12 01:00:29;;;;;;;7.57;4.72;;;;;;;22.55;77.37;99876.50;6154942;23;20539;-83
2023/07/12 01:03:36;;;;;;;9.32;4.88;;;;;;;22.62;76.57;99882.78;6153902;23;20087;-81
2023/07/12 01:06:40;;;;;;;6.28;4.25;;;;;;;22.73;76.46;99874.41;6155248;23;20149;-81
2023/07/12 01:09:46;;;;;;;6.57;4.13;;;;;;;22.80;76.11;99888.69;6155091;23;20407;-82
2023/07/12 01:12:50;;;;;;;6.57;4.25;;;;;;;22.45;77.53;99877.53;6154908;23;20024;-82
2023/07/12 01:15:54;;;;;;;9.77;4.00;;;;;;;22.50;77.36;99880.50;6155015;23;20028;-83
2023/07/12 01:18:59;;;;;;;7.03;4.38;;;;;;;22.70;76.34;99885.41;6154997;23;20071;-81
2023/07/12 01:22:08;;;;;;;6.82;3.92;;;;;;;22.74;75.98;99889.38;6154936;23;20052;-83
2023/07/12 01:25:35;;;;;;;13.55;4.70;;;;;;;22.75;76.14;99893.72;6154777;23;20024;-82
2023/07/12 01:29:02;;;;;;;8.02;4.43;;;;;;;22.85;75.85;99904.16;6155011;23;20041;-82
2023/07/12 01:32:07;;;;;;;8.02;4.70;;;;;;;22.77;75.74;99899.69;6153924;23;20525;-83
2023/07/12 01:35:10;;;;;;;5.07;3.72;;;;;;;22.79;75.69;99895.03;6154922;23;20020;-84
2023/07/12 01:38:42;;;;;;;5.15;3.60;;;;;;;22.74;76.21;99902.72;6154802;23;20088;-85
2023/07/12 01:41:50;;;;;;;7.82;3.75;;;;;;;22.56;76.61;99904.78;6155729;23;20097;-85
2023/07/12 01:44:57;;;;;;;6.00;3.67;;;;;;;22.46;77.34;99895.19;6155808;23;20072;-85
2023/07/12 01:58:55;;;;;;;8.10;4.05;;;;;;;22.04;80.12;99917.53;5906680;23;20033;-85
2023/07/12 02:02:28;;;;;;;5.45;3.78;;;;;;;22.14;79.53;99920.03;6141873;23;20072;-84
2023/07/12 02:35:29;;;;;;;5.85;3.90;;;;;;;22.31;79.00;99910.22;5953001;24;20164;-85
2023/07/12 02:54:08;;;;;;;9.88;4.13;;;;;;;22.03;81.30;99913.22;6078243;23;20026;-85
2023/07/12 02:58:35;;;;;;;;;;;;;;;;;;;;;
2023/07/12 03:03:13;;;;;;;;;;;;;;;;;;;;;
2023/07/12 03:06:56;;;;;;;8.32;4.30;;;;;;;21.66;83.18;99899.63;5980744;24;20137;-85
2023/07/12 03:16:45;;;;;;;;;;;;;;;;;;;;;
2023/07/12 03:20:51;;;;;;;;;;;;;;;;;;;;;
2023/07/12 03:24:53;;;;;;;6.15;4.72;;;;;;;21.86;83.11;99908.94;5924692;24;19925;-85
2023/07/12 03:27:59;;;;;;;7.28;4.20;;;;;;;21.99;82.51;99914.56;5927413;24;20548;-74
2023/07/12 03:31:11;;;;;;;7.00;4.30;;;;;;;22.10;81.39;99925.88;6068582;23;20442;-79
2023/07/12 03:34:14;;;;;;;11.25;4.45;;;;;;;22.13;81.37;99925.53;6068361;23;20026;-79
2023/07/12 03:37:19;;;;;;;5.68;3.97;;;;;;;21.98;82.97;99933.38;6068323;23;20155;-73
2023/07/12 03:40:23;;;;;;;6.80;4.15;;;;;;;21.90;83.46;99942.19;6068318;23;20026;-77
2023/07/12 03:43:26;;;;;;;9.80;4.10;;;;;;;21.81;84.32;99957.34;6091661;23;20464;-74
2023/07/12 03:46:30;;;;;;;7.20;3.67;;;;;;;21.83;84.17;99970.50;6096936;23;20041;-75
2023/07/12 03:49:33;;;;;;;6.20;4.00;;;;;;;21.99;82.76;99973.16;6096854;23;20085;-73
2023/07/12 03:52:36;;;;;;;7.82;4.13;;;;;;;22.14;81.11;99980.44;6109015;23;20483;-75
2023/07/12 03:55:44;;;;;;;8.10;4.40;;;;;;;22.14;80.80;99991.09;6126089;23;20572;-74
2023/07/12 03:58:48;;;;;;;9.25;4.20;;;;;;;22.11;80.47;100010.06;6126089;23;20036;-76
2023/07/12 04:01:51;;;;;;;8.80;3.88;;;;;;;22.13;79.67;100002.75;6126121;23;20024;-73
2023/07/12 04:04:54;;;;;;;8.18;4.25;;;;;;;22.14;78.62;100017.72;6125975;23;20025;-76
2023/07/12 04:07:58;;;;;;;6.95;4.22;;;;;;;22.18;79.28;100024.41;6126006;23;20105;-79
2023/07/12 04:11:02;;;;;;;6.25;3.75;;;;;;;22.14;80.47;100028.38;6108018;23;20040;-76
2023/07/12 04:14:09;;;;;;;6.75;3.88;;;;;;;22.24;79.12;100013.09;6125731;23;20085;-88
2023/07/12 04:17:12;;;;;;;8.70;3.15;;;;;;;22.24;75.19;100021.91;6126081;23;20471;-83
2023/07/12 04:20:16;;;;;;;8.38;3.53;;;;;;;22.29;77.09;100026.72;6125738;23;20024;-78
2023/07/12 04:23:58;;;;;;;9.82;4.00;;;;;;;22.15;77.58;100032.72;6127039;23;20025;-91
2023/07/12 04:27:01;;;;;;;7.22;3.00;;;;;;;22.29;74.56;100040.88;6125794;23;20237;-83
2023/07/12 04:30:31;;;;;;;4.43;1.98;;;;;;;21.92;68.91;100065.31;6125868;23;20039;-87
2023/07/12 04:33:34;;;;;;;5.97;2.33;;;;;;;21.97;68.71;100108.22;6108058;23;20029;-71
2023/07/12 04:36:37;;;;;;;4.80;1.92;;;;;;;21.94;68.34;100091.75;6125743;23;20021;-68
2023/07/12 04:39:40;;;;;;;7.88;1.80;;;;;;;21.54;70.68;100101.31;6125623;23;20029;-73
2023/07/12 04:43:11;;;;;;;5.75;2.05;;;;;;;20.85;74.74;100111.09;6124398;23;20076;-67
2023/07/12 04:46:15;;;;;;;3.35;1.55;;;;;;;21.14;76.22;100103.59;6123670;23;20025;-69
2023/07/12 04:49:19;;;;;;;3.28;1.58;;;;;;;20.99;75.80;100105.19;6124601;23;20172;-67
2023/07/12 04:52:22;;;;;;;3.28;1.42;;;;;;;21.22;75.36;100100.16;6125375;23;20032;-67
2023/07/12 04:55:26;;;;;;;3.75;1.80;;;;;;;21.20;76.76;100104.81;6125467;23;20076;-68
2023/07/12 04:58:30;;;;;;;5.90;2.00;;;;;;;21.14;77.65;100111.59;6125569;23;20029;-68
2023/07/12 05:01:34;;;;;;;7.18;1.60;;;;;;;21.10;77.30;100123.53;6125526;23;20032;-67
2023/07/12 05:04:37;;;;;;;4.40;1.42;;;;;;;21.12;78.65;100118.03;6125417;23;20076;-67
2023/07/12 05:07:41;;;;;;;5.13;1.85;;;;;;;21.17;79.50;100120.25;6125555;23;20121;-67
2023/07/12 05:10:45;;;;;;;6.53;2.20;;;;;;;21.12;78.34;100129.53;6125512;23;20519;-71
2023/07/12 05:13:48;;;;;;;9.98;1.60;;;;;;;21.16;78.22;100145.16;6125310;23;20025;-68
2023/07/12 05:16:51;;;;;;;4.38;1.92;;;;;;;21.20;78.36;100149.19;6125447;23;20025;-68
2023/07/12 05:19:55;;;;;;;4.47;1.63;;;;;;;21.21;77.61;100158.81;6125398;23;20097;-68
2023/07/12 05:22:58;;;;;;;4.35;2.15;;;;;;;21.20;77.87;100163.28;6125457;23;20408;-67
2023/07/12 05:26:02;;;;;;;4.22;1.50;;;;;;;21.24;77.88;100169.13;6125223;23;20029;-70
2023/07/12 05:29:11;;;;;;;4.60;1.60;;;;;;;21.10;74.08;100182.00;6125395;23;20029;-67
2023/07/12 05:32:17;;;;;;;4.55;1.65;;;;;;;21.09;75.26;100183.00;6125383;23;20491;-68
2023/07/12 05:35:21;;;;;;;4.60;2.00;;;;;;;21.11;76.05;100189.00;6125347;23;20401;-68
2023/07/12 05:38:24;;;;;;;2.85;1.33;;;;;;;21.20;74.46;100194.38;6125407;23;20088;-68
2023/07/12 05:41:28;;;;;;;5.45;1.73;;;;;;;21.19;75.01;100187.41;6125246;23;20416;-67
2023/07/12 05:44:31;;;;;;;5.15;2.22;;;;;;;21.31;75.16;100192.28;6125221;23;20072;-67
2023/07/12 05:47:35;;;;;;;4.40;1.50;;;;;;;21.32;74.94;100187.81;6125221;23;20028;-67
2023/07/12 05:50:38;;;;;;;4.97;1.88;;;;;;;21.38;74.23;100195.19;6125270;23;20084;-67
2023/07/12 05:53:42;;;;;;;3.20;1.40;;;;;;;21.35;74.26;100190.19;6107035;23;20029;-70
2023/07/12 05:56:46;;;;;;;3.90;1.52;;;;;;;21.40;72.53;100195.84;6124330;23;20053;-67
2023/07/12 05:59:49;;;;;;;5.60;1.80;;;;;;;21.38;72.92;100197.84;6123648;23;20099;-72
2023/07/12 06:02:52;;;;;;;4.70;1.70;;;;;;;21.25;72.97;100197.38;6124916;23;20025;-72
2023/07/12 06:05:56;;;;;;;4.55;1.40;;;;;;;21.00;72.31;100194.59;6124876;23;20029;-72
2023/07/12 06:09:00;;;;;;;3.95;1.58;;;;;;;21.01;71.95;100196.25;6125188;23;20073;-72
2023/07/12 06:12:07;;;;;;;6.35;1.60;;;;;;;20.84;71.60;100199.78;6107057;23;20495;-78
2023/07/12 06:15:13;;;;;;;3.10;1.23;;;;;;;20.76;72.15;100197.03;6124389;23;20025;-78
2023/07/12 06:18:16;;;;;;;4.95;1.73;;;;;;;20.87;70.69;100204.78;6124724;23;20073;-78
2023/07/12 06:21:20;;;;;;;4.75;1.50;;;;;;;20.76;69.87;100211.16;6124888;23;20069;-82
2023/07/12 06:24:24;;;;;;;4.35;1.42;;;;;;;20.87;69.10;100200.31;6124784;23;20037;-77
2023/07/12 06:27:28;;;;;;;4.53;1.30;;;;;;;20.99;68.02;100202.69;6126364;23;20024;-72
2023/07/12 06:30:31;;;;;;;4.25;1.75;;;;;;;21.18;68.53;100212.28;6109179;23;20033;-78
2023/07/12 06:33:35;;;;;;;3.45;1.30;;;;;;;21.09;67.84;100209.59;6126985;23;20305;-78
2023/07/12 06:36:44;;;;;;;3.78;1.50;;;;;;;20.97;69.75;100210.84;6126982;23;20093;-79
2023/07/12 06:39:48;;;;;;;4.35;1.65;;;;;;;21.15;69.81;100202.81;6126923;23;20029;-76
2023/07/12 06:42:52;;;;;;;3.75;1.33;;;;;;;21.17;68.59;100200.00;6126771;23;20028;-77
2023/07/12 06:45:56;;;;;;;3.75;1.65;;;;;;;21.11;67.80;100206.78;6092481;23;20161;-74
2023/07/12 06:49:00;;;;;;;4.47;1.35;;;;;;;21.21;68.07;100193.38;6126913;23;20074;-78
2023/07/12 06:52:04;;;;;;;3.40;1.20;;;;;;;21.22;68.20;100192.38;6108609;23;20033;-76
2023/07/12 06:55:09;;;;;;;3.28;1.23;;;;;;;21.19;67.91;100188.22;6108877;23;20089;-77
2023/07/12 06:58:12;;;;;;;3.72;1.30;;;;;;;21.15;67.31;100192.16;6126787;23;20048;-77
2023/07/12 07:01:16;;;;;;;5.00;1.30;;;;;;;21.19;67.34;100177.59;6126836;23;20080;-77
2023/07/12 07:04:19;;;;;;;3.88;1.50;;;;;;;21.24;68.41;100179.75;6127304;23;20519;-77
2023/07/12 07:07:26;;;;;;;3.17;1.60;;;;;;;21.21;67.51;100183.56;6127034;23;20061;-77
2023/07/12 07:10:29;;;;;;;3.60;1.65;;;;;;;21.29;67.38;100180.97;6126747;23;20064;-76
2023/07/12 07:13:33;;;;;;;3.35;1.13;;;;;;;21.50;66.15;100180.59;6126670;23;20410;-76
2023/07/12 07:16:36;;;;;;;5.95;1.85;;;;;;;21.68;66.93;100177.84;6126639;23;20508;-73
2023/07/12 07:19:39;;;;;;;4.57;1.40;;;;;;;21.81;64.98;100172.91;6126580;23;20097;-73
2023/07/12 07:22:43;;;;;;;3.10;1.15;;;;;;;21.94;63.07;100174.28;6126703;23;20527;-73
2023/07/12 07:25:47;;;;;;;2.60;0.85;;;;;;;21.91;62.03;100182.59;6126393;23;20400;-77
2023/07/12 07:28:50;;;;;;;3.28;0.90;;;;;;;21.78;61.77;100177.72;6108764;23;20068;-77
2023/07/12 07:31:53;;;;;;;2.10;0.80;;;;;;;21.66;61.85;100190.47;6126727;23;20495;-76
2023/07/12 07:34:56;;;;;;;3.80;1.00;;;;;;;21.90;61.44;100180.94;6126333;23;20025;-71
2023/07/12 07:38:00;;;;;;;2.75;0.95;;;;;;;22.11;62.02;100193.78;6123508;23;20084;-76
2023/07/12 07:41:08;;;;;;;2.13;0.95;;;;;;;22.21;60.97;100194.53;6125310;23;20105;-76
2023/07/12 07:44:12;;;;;;;5.00;0.95;;;;;;;22.22;60.33;100197.00;6125849;23;20092;-77
2023/07/12 07:47:15;;;;;;;1.70;0.80;;;;;;;22.17;58.62;100201.16;6125832;23;20068;-76
2023/07/12 07:50:22;;;;;;;2.13;0.85;;;;;;;22.15;58.62;100195.97;6126221;23;20044;-76
2023/07/12 07:53:26;;;;;;;2.45;0.77;;;;;;;22.18;58.59;100184.19;6126005;23;20104;-76
2023/07/12 07:56:29;;;;;;;3.88;1.30;;;;;;;22.51;57.75;100182.38;6126443;23;20021;-76
2023/07/12 07:59:32;;;;;;;2.17;0.85;;;;;;;22.48;57.59;100188.88;6126508;23;20405;-77
2023/07/12 08:02:36;;;;;;;2.65;1.25;;;;;;;22.47;56.68;100189.06;6126442;23;20443;-76
2023/07/12 08:05:40;;;;;;;2.60;0.82;;;;;;;22.57;56.74;100180.91;6126412;23;20101;-76
2023/07/12 08:08:44;;;;;;;2.65;1.08;;;;;;;22.58;57.60;100190.56;6108399;23;20064;-76
2023/07/12 08:11:47;;;;;;;3.22;1.02;;;;;;;22.68;57.02;100180.56;6108311;23;20025;-77
2023/07/12 08:14:50;;;;;;;4.25;1.20;;;;;;;22.70;57.31;100183.91;6126315;23;20077;-77
2023/07/12 08:17:57;;;;;;;2.35;0.90;;;;;;;22.62;57.58;100186.53;6126264;23;20080;-76
2023/07/12 08:21:00;;;;;;;2.70;1.27;;;;;;;22.78;57.81;100175.88;6126220;23;20029;-76
2023/07/12 08:24:04;;;;;;;2.30;0.88;;;;;;;22.63;56.82;100189.06;6126209;23;20033;-76
2023/07/12 08:27:15;;;;;;;4.35;1.10;;;;;;;22.65;56.59;100191.53;6126202;23;20036;-76
2023/07/12 08:30:18;;;;;;;2.22;0.82;;;;;;;22.66;56.42;100195.91;6125998;23;20028;-77
2023/07/12 08:33:22;;;;;;;4.45;1.23;;;;;;;22.61;56.70;100190.22;6124507;23;20029;-76
2023/07/12 08:36:26;;;;;;;3.05;1.00;;;;;;;22.62;56.84;100186.53;6126122;23;20121;-76
2023/07/12 08:39:29;;;;;;;4.25;1.42;;;;;;;22.91;56.37;100192.22;6126134;23;20100;-76
2023/07/12 08:42:39;;;;;;;3.78;1.05;;;;;;;22.86;56.32;100193.72;6125917;23;20080;-77
2023/07/12 08:45:45;;;;;;;4.68;1.05;;;;;;;22.78;56.77;100196.38;6125948;23;20025;-75
2023/07/12 08:48:57;;;;;;;3.47;1.17;;;;;;;22.74;56.32;100201.22;6125445;23;20049;-76
2023/07/12 08:52:07;;;;;;;5.53;1.08;;;;;;;22.96;55.29;100195.22;6125833;23;20033;-76
2023/07/12 08:55:19;;;;;;;2.60;1.38;;;;;;;23.26;54.93;100195.53;6125862;23;20084;-76
2023/07/12 08:58:34;;;;;;;2.35;0.90;;;;;;;23.29;55.18;100194.34;6125837;23;20029;-76
2023/07/12 09:01:51;;;;;;;5.38;1.38;;;;;;;22.82;55.67;100190.56;6125827;23;20092;-76
2023/07/12 09:04:57;;;;;;;3.83;1.20;;;;;;;22.51;57.14;100185.88;6125700;23;20029;-76
2023/07/12 09:08:27;;;;;;;3.50;1.35;;;;;;;22.74;57.05;100185.22;6125749;23;20112;-77
2023/07/12 09:11:32;;;;;;;3.00;1.10;;;;;;;22.81;56.51;100185.38;6109136;23;20096;-77
2023/07/12 09:14:36;;;;;;;3.55;1.20;;;;;;;22.86;56.55;100183.88;6125766;23;20107;-76
2023/07/12 09:17:43;;;;;;;2.97;1.13;;;;;;;22.97;56.49;100193.38;6126089;23;20028;-76
2023/07/12 09:20:50;;;;;;;4.60;1.38;;;;;;;23.42;56.27;100181.28;6125822;23;20057;-76
2023/07/12 09:24:00;;;;;;;4.28;1.00;;;;;;;23.58;54.59;100183.06;6125821;23;20043;-76
2023/07/12 09:27:12;;;;;;;4.38;1.30;;;;;;;23.81;53.73;100183.19;6125639;23;20360;-77
2023/07/12 09:30:22;;;;;;;2.88;1.38;;;;;;;23.82;53.53;100169.66;6125469;23;20028;-76
2023/07/12 09:33:25;;;;;;;4.88;1.00;;;;;;;23.63;54.22;100178.06;6125548;23;20032;-77
2023/07/12 09:36:29;;;;;;;5.03;1.20;;;;;;;23.41;55.57;100188.47;6125562;23;20040;-77
2023/07/12 09:39:32;;;;;;;3.67;1.50;;;;;;;23.13;55.79;100189.88;6125464;23;20103;-78
2023/07/12 09:42:36;;;;;;;3.55;1.10;;;;;;;23.24;56.50;100181.53;6125375;23;20164;-77
2023/07/12 09:45:42;;;;;;;4.05;1.48;;;;;;;23.41;55.18;100182.28;6125375;23;20025;-77
2023/07/12 09:49:00;;;;;;;4.10;1.40;;;;;;;23.56;55.00;100185.09;6125233;23;20081;-76
2023/07/12 09:52:20;;;;;;;2.90;1.00;;;;;;;23.76;53.92;100178.34;6107104;23;20033;-77
2023/07/12 09:55:37;;;;;;;4.05;1.33;;;;;;;23.84;53.16;100194.34;6107252;23;20025;-77
2023/07/12 09:59:37;;;;;;;4.00;1.08;;;;;;;24.05;52.28;100179.53;6125493;23;20033;-77
2023/07/12 10:03:04;;;;;;;3.92;1.15;;;;;;;24.14;52.16;100173.97;6041759;23;20028;-78
2023/07/12 10:06:42;;;;;;;4.88;1.30;;;;;;;24.17;50.22;100172.78;6127211;23;20028;-77
2023/07/12 10:09:48;;;;;;;3.40;1.00;;;;;;;24.34;50.74;100178.84;6127226;23;20057;-77
2023/07/12 10:13:09;;;;;;;4.85;1.00;;;;;;;24.14;48.01;100179.31;6127078;23;20025;-77
2023/07/12 10:16:34;;;;;;;4.63;1.05;;;;;;;24.46;48.51;100176.63;6127315;23;20025;-77
2023/07/12 10:19:40;;;;;;;5.20;1.23;;;;;;;24.40;48.64;100188.81;6127148;23;20126;-77
2023/07/12 10:22:45;;;;;;;3.92;1.15;;;;;;;24.24;48.83;100184.41;6127094;23;20033;-77
2023/07/12 10:25:55;;;;;;;3.95;1.15;;;;;;;24.32;48.47;100189.72;6126796;23;20044;-76
2023/07/12 10:29:21;;;;;;;2.88;0.95;;;;;;;24.59;49.14;100187.53;6127100;23;20037;-76
2023/07/12 10:32:31;;;;;;;2.70;1.10;;;;;;;24.70;49.29;100188.97;6127049;23;20041;-77
2023/07/12 10:35:42;;;;;;;4.82;1.10;;;;;;;24.96;47.02;100192.06;6126920;23;20077;-77
2023/07/12 10:38:47;;;;;;;2.65;1.17;;;;;;;24.87;47.97;100184.31;6126897;23;20029;-77
2023/07/12 10:41:58;;;;;;;3.25;1.00;;;;;;;24.72;47.04;100197.63;6127063;23;20456;-76
2023/07/12 10:45:05;;;;;;;4.15;1.00;;;;;;;24.71;47.14;100190.63;6126793;23;20092;-76
2023/07/12 10:48:21;;;;;;;3.00;1.00;;;;;;;24.75;47.10;100210.63;6127103;23;20060;-77
2023/07/12 10:51:37;;;;;;;2.47;0.93;;;;;;;24.57;47.06;100195.75;6126879;23;20029;-77
2023/07/12 10:55:10;;;;;;;2.90;1.00;;;;;;;24.66;47.54;100191.16;6126940;23;20511;-77
2023/07/12 10:58:45;;;;;;;2.63;1.45;;;;;;;24.72;46.47;100187.75;6109011;23;20032;-77
2023/07/12 11:01:51;;;;;;;4.85;1.10;;;;;;;24.55;46.58;100179.03;6126855;23;20462;-76
2023/07/12 11:05:16;;;;;;;4.13;1.58;;;;;;;24.96;45.85;100183.22;6126670;23;20392;-77
2023/07/12 11:08:39;;;;;;;7.63;1.48;;;;;;;25.01;44.39;100197.69;6126642;23;20076;-77
2023/07/12 11:12:07;;;;;;;2.45;1.10;;;;;;;24.79;44.51;100194.06;6126530;23;20118;-77
2023/07/12 11:15:27;;;;;;;4.88;1.25;;;;;;;24.89;44.10;100182.25;6126501;23;20029;-69
2023/07/12 11:18:37;;;;;;;3.92;1.15;;;;;;;24.93;44.36;100173.72;6126421;23;20404;-72
2023/07/12 11:21:49;;;;;;;2.13;1.10;;;;;;;24.81;44.65;100169.81;6126519;23;20518;-71
2023/07/12 11:25:01;;;;;;;2.67;1.00;;;;;;;24.86;45.77;100171.94;6126293;23;20352;-70
2023/07/12 11:28:20;;;;;;;4.17;0.90;;;;;;;25.00;44.89;100168.47;6126511;23;20405;-70
2023/07/12 11:31:25;;;;;;;2.90;1.20;;;;;;;25.31;44.57;100167.50;6126246;23;20053;-76
2023/07/12 11:34:28;;;;;;;4.25;0.93;;;;;;;25.55;40.90;100161.00;6126205;23;20025;-77
2023/07/12 11:37:45;;;;;;;5.22;1.10;;;;;;;25.61;39.36;100161.09;6126373;23;20029;-75
2023/07/12 11:40:52;;;;;;;2.67;1.70;;;;;;;25.62;39.45;100165.44;6126312;23;20036;-73
2023/07/12 11:44:05;;;;;;;2.22;0.80;;;;;;;25.88;37.80;100161.47;6126367;23;20378;-76
2023/07/12 11:47:10;;;;;;;1.90;1.00;;;;;;;25.95;37.66;100154.31;6126361;23;20100;-73
2023/07/12 11:50:26;;;;;;;4.30;1.25;;;;;;;25.92;37.70;100152.84;6126336;23;20026;-77
2023/07/12 11:53:32;;;;;;;2.45;1.00;;;;;;;26.01;37.49;100156.25;6126020;23;20033;-75
2023/07/12 11:56:40;;;;;;;2.72;1.15;;;;;;;26.25;37.45;100143.50;6126153;23;20463;-78
2023/07/12 11:59:46;;;;;;;5.15;0.98;;;;;;;26.15;36.79;100138.44;6126219;23;20032;-75
2023/07/12 12:02:53;;;;;;;4.63;0.93;;;;;;;26.19;36.85;100132.50;6124961;23;20028;-73
2023/07/12 12:05:59;;;;;;;2.30;0.90;;;;;;;26.24;37.22;100149.88;6125967;23;20075;-71
2023/07/12 12:09:02;;;;;;;3.92;1.20;;;;;;;26.12;35.80;100142.34;6126203;23;20105;-72
2023/07/12 12:12:07;;;;;;;2.50;1.17;;;;;;;26.35;35.31;100155.53;6126149;23;20487;-74
2023/07/12 12:15:25;;;;;;;3.83;1.02;;;;;;;26.48;34.21;100151.31;6126044;23;20038;-72
2023/07/12 12:18:30;;;;;;;3.00;0.90;;;;;;;26.45;34.33;100144.50;6126003;23;20081;-76
2023/07/12 12:21:46;;;;;;;6.32;0.80;;;;;;;26.59;33.38;100140.13;6125999;23;20032;-78
2023/07/12 12:24:54;;;;;;;2.05;0.95;;;;;;;26.57;33.44;100153.72;6125474;23;20037;-76
2023/07/12 12:28:03;;;;;;;6.70;1.10;;;;;;;26.48;33.55;100159.38;6125856;23;20029;-82
2023/07/12 12:31:23;;;;;;;2.92;0.98;;;;;;;26.55;33.51;100149.59;6108754;23;20043;-76
2023/07/12 12:34:40;;;;;;;3.33;1.17;;;;;;;26.81;33.47;100140.91;6108252;23;20092;-79
2023/07/12 12:38:19;;;;;;;4.80;1.00;;;;;;;26.60;34.36;100126.50;6108660;23;20025;-76
2023/07/12 12:41:34;;;;;;;3.63;1.55;;;;;;;26.89;34.52;100124.66;6108197;23;20107;-76
2023/07/12 12:44:38;;;;;;;2.55;0.90;;;;;;;27.12;31.51;100127.06;6125766;23;20040;-76
2023/07/12 12:47:43;;;;;;;2.05;1.00;;;;;;;26.98;32.48;100131.53;6125875;23;20360;-75
2023/07/12 12:50:48;;;;;;;3.40;1.00;;;;;;;27.18;31.75;100128.16;6125679;23;20029;-75
2023/07/12 12:53:51;;;;;;;2.30;1.00;;;;;;;27.06;30.45;100130.56;6125849;23;20028;-75
2023/07/12 12:56:54;;;;;;;1.65;0.73;;;;;;;26.93;30.61;100139.34;6125676;23;20049;-76
2023/07/12 13:00:01;;;;;;;4.03;1.02;;;;;;;27.18;29.94;100126.28;6125725;23;20084;-76
2023/07/12 13:03:05;;;;;;;4.03;0.70;;;;;;;26.95;30.80;100137.28;6125787;23;20033;-75
2023/07/12 13:06:29;;;;;;;2.05;0.63;;;;;;;27.29;30.99;100127.59;6107697;23;20024;-76
2023/07/12 13:09:33;;;;;;;3.63;0.70;;;;;;;27.50;31.09;100118.59;6125865;23;20369;-75
2023/07/12 13:12:38;;;;;;;1.77;0.52;;;;;;;27.97;29.55;100123.13;6125744;23;20081;-75
2023/07/12 13:15:42;;;;;;;3.35;0.73;;;;;;;27.68;29.50;100115.38;6125634;23;20024;-79
2023/07/12 13:18:46;;;;;;;3.25;0.82;;;;;;;27.78;29.93;100142.69;6107752;23;20092;-75
2023/07/12 13:21:55;;;;;;;2.17;1.05;;;;;;;27.83;29.73;100134.06;6107750;23;20510;-75
2023/07/12 13:25:03;;;;;;;2.50;1.00;;;;;;;27.45;30.28;100137.19;6125520;23;20025;-75
2023/07/12 13:28:13;;;;;;;2.72;0.98;;;;;;;27.75;30.76;100126.97;6125704;23;20040;-77
2023/07/12 13:31:19;;;;;;;3.42;0.80;;;;;;;28.07;30.69;100130.78;6125613;23;20029;-79
2023/07/12 13:34:27;;;;;;;2.08;0.90;;;;;;;28.38;29.39;100132.91;6125562;23;20459;-77
2023/07/12 13:37:34;;;;;;;4.53;1.17;;;;;;;28.04;30.75;100133.88;6127036;23;20077;-76
2023/07/12 13:40:40;;;;;;;2.95;0.80;;;;;;;27.84;30.29;100128.47;6127561;23;20131;-75
2023/07/12 13:43:56;;;;;;;4.00;0.77;;;;;;;28.05;29.66;100132.88;6127488;23;20407;-76
2023/07/12 13:47:24;;;;;;;3.53;1.20;;;;;;;28.60;28.74;100141.63;6127421;23;20534;-76
2023/07/12 13:50:27;;;;;;;5.85;0.88;;;;;;;28.50;29.75;100123.22;6127369;23;20101;-76
2023/07/12 13:53:31;;;;;;;1.95;0.68;;;;;;;28.13;29.67;100142.59;6127413;23;20056;-75
2023/07/12 13:56:34;;;;;;;1.73;0.65;;;;;;;27.88;29.44;100140.47;6127351;23;20078;-74
2023/07/12 13:59:41;;;;;;;3.03;1.17;;;;;;;28.29;28.73;100153.78;6127256;23;20037;-74
2023/07/12 14:02:49;;;;;;;2.50;0.80;;;;;;;28.57;27.94;100143.91;6127040;23;20028;-75
2023/07/12 14:06:04;;;;;;;2.58;0.68;;;;;;;28.73;27.73;100138.09;6127009;23;20028;-75
2023/07/12 14:09:09;;;;;;;1.85;0.68;;;;;;;28.68;27.24;100154.03;6127388;23;20080;-75
2023/07/12 14:12:18;;;;;;;2.38;0.75;;;;;;;28.90;27.27;100136.63;6127139;23;20024;-76
2023/07/12 14:15:24;;;;;;;4.20;0.70;;;;;;;29.14;26.87;100128.97;6127019;23;20498;-75
2023/07/12 14:18:27;;;;;;;2.58;0.75;;;;;;;29.03;27.40;100138.50;6126936;23;20028;-75
2023/07/12 14:21:32;;;;;;;2.17;0.73;;;;;;;30.15;26.31;100132.84;6127011;23;20460;-75
2023/07/12 14:24:36;;;;;;;2.20;0.60;;;;;;;28.88;27.33;100154.84;6126921;23;20407;-76
2023/07/12 14:27:40;;;;;;;2.85;1.10;;;;;;;31.19;23.80;100134.06;6127322;23;20029;-77
2023/07/12 14:30:45;;;;;;;2.13;0.70;;;;;;;32.72;21.95;100129.25;6108829;23;20380;-76
2023/07/12 14:33:52;;;;;;;1.83;0.70;;;;;;;32.78;22.45;100133.72;6126981;23;20029;-76
2023/07/12 14:36:56;;;;;;;3.25;0.68;;;;;;;32.37;22.13;100135.41;6127074;23;20072;-75
2023/07/12 14:40:00;;;;;;;2.13;0.82;;;;;;;30.74;23.24;100159.38;6126818;23;20073;-79
2023/07/12 14:43:11;;;;;;;2.20;0.80;;;;;;;31.08;23.39;100141.03;6126771;23;20093;-77
2023/07/12 14:46:15;;;;;;;;;;;;;;;34.02;20.29;100119.78;6109368;23;20053;-85
2023/07/12 14:49:24;;;;;;;2.28;0.85;;;;;;;34.06;20.53;100117.41;6125351;23;19924;-84
2023/07/12 14:56:52;;;;;;;1.70;0.65;;;;;;;33.86;20.61;100134.94;6097313;23;20480;-83
2023/07/12 15:15:04;;;;;;;2.20;0.70;;;;;;;32.14;21.70;100137.00;6009262;23;20513;-88
2023/07/12 15:18:08;;;;;;;3.25;0.90;;;;;;;33.37;20.64;100125.53;6009200;23;20474;-85
2023/07/12 15:21:49;;;;;;;2.25;0.80;;;;;;;32.15;21.98;100127.84;5993232;23;20042;-87
2023/07/12 15:25:34;;;;;;;3.75;0.80;;;;;;;36.23;18.04;100111.59;6009739;23;20636;-87
2023/07/12 15:39:05;;;;;;;2.45;0.82;;;;;;;38.11;16.73;100099.91;6015075;23;20469;-96
2023/07/12 15:42:20;;;;;;;1.95;0.75;;;;;;;34.87;18.19;100115.97;6097044;23;20025;-80
2023/07/12 15:45:26;;;;;;;3.40;1.00;;;;;;;33.16;19.78;100116.16;6079360;23;20033;-80
2023/07/12 15:48:34;;;;;;;3.05;0.85;;;;;;;32.55;20.80;100121.81;6097308;23;20037;-79
2023/07/12 15:51:43;;;;;;;11.27;3.70;;;;;;;33.26;19.31;100121.78;6097034;23;20159;-79
2023/07/12 15:54:50;;;;;;;9.07;1.77;;;;;;;36.27;16.73;100109.97;6109426;23;20096;-80
2023/07/12 15:57:55;;;;;;;3.63;0.90;;;;;;;36.17;17.31;100096.28;6126059;23;20345;-80
2023/07/12 16:01:03;;;;;;;4.80;1.25;;;;;;;36.26;17.54;100097.44;6126498;23;20025;-80
2023/07/12 16:04:21;;;;;;;5.82;1.05;;;;;;;34.69;19.18;100108.13;6093576;23;20052;-81
2023/07/12 16:07:27;;;;;;;1.90;0.75;;;;;;;35.28;18.14;100113.81;6126498;23;20388;-82
2023/07/12 16:10:34;;;;;;;3.10;1.00;;;;;;;31.89;20.98;100112.84;6108367;23;20069;-82
2023/07/12 16:13:39;;;;;;;2.13;0.80;;;;;;;30.61;22.85;100116.34;6126241;23;20078;-81
2023/07/12 16:16:45;;;;;;;2.80;0.70;;;;;;;30.35;23.90;100110.13;6126111;23;20021;-76
2023/07/12 16:19:55;;;;;;;3.15;0.70;;;;;;;31.64;23.26;100126.47;6123951;23;20024;-78
2023/07/12 16:22:59;;;;;;;1.77;0.60;;;;;;;30.12;23.10;100139.50;6108098;23;20033;-76
2023/07/12 16:26:05;;;;;;;4.18;0.73;;;;;;;29.56;23.84;100129.44;6124660;23;20081;-75
2023/07/12 16:29:12;;;;;;;5.75;0.90;;;;;;;29.39;24.57;100132.59;6125828;23;20040;-75
2023/07/12 16:32:16;;;;;;;2.42;1.02;;;;;;;30.00;24.31;100135.88;6125763;23;20029;-76
2023/07/12 16:35:20;;;;;;;2.35;0.85;;;;;;;30.04;23.94;100137.91;6125718;23;20408;-76
2023/07/12 16:38:26;;;;;;;3.55;1.02;;;;;;;29.24;24.95;100137.41;6124298;23;20028;-76
2023/07/12 16:41:32;;;;;;;3.42;0.88;;;;;;;28.68;25.58;100133.31;6125807;23;20029;-76